»·PEaware :: N62DF KSMX-KBFL

N62DF :: KSMX-KBFL

FLIGHT INFORMATION

Flight Status: Arrived
Operator: Privately registered:
United States
More flights under this callsign
Pilot: Dirk F. (33052)
Aircraft: CESSNA 172 SKYHAWK
(C172)
More flights by this aircraft type
Origin: KSMX Santa Maria Pub/Capt Hancock
United States
Destination: KBFL Meadows
United States
More flights between these airports :: More routes between these airports
Route: FLW
File this flight plan on PilotEdge
Remarks:
Altitude:
(Current/Filed)
7,500ft
Speed:
(Current/Filed)
105kts
Departed: 13-Jan-21 09:30 AM
Arrived: 13-Jan-21 10:20 AM
Distance/Time
Traveled:
76nm/0:50
Distance/Time
To Go:
Arrived

Flight Plot

Page will automatically refresh every two minutes.


Map Options




Map Legend


Flown Route
Filed Route
Departure Airport
Arrival Airport
Navaid (VOR, NDB)
Fix

Horizontal Profiles

Position Reports

Time Latitude Longitude Heading Altitude Ground
Speed
13-Jan-21 09:00 34.894338 -120.443868 324 263ft 0kts
13-Jan-21 09:01 34.894338 -120.443868 324 263ft 0kts
13-Jan-21 09:02 34.894338 -120.443868 324 263ft 0kts
13-Jan-21 09:03 34.894338 -120.443868 324 263ft 0kts
13-Jan-21 09:04 34.894338 -120.443868 324 263ft 0kts
13-Jan-21 09:05 34.894338 -120.443868 324 263ft 0kts
13-Jan-21 09:06 34.894338 -120.443868 323 263ft 0kts
13-Jan-21 09:07 34.894338 -120.443868 323 263ft 0kts
13-Jan-21 09:08 34.894338 -120.443868 323 263ft 0kts
13-Jan-21 09:09 34.894338 -120.443868 323 263ft 0kts
13-Jan-21 09:10 34.894338 -120.443868 323 263ft 0kts
13-Jan-21 09:11 34.894338 -120.443868 323 263ft 0kts
13-Jan-21 09:12 34.894338 -120.443868 323 263ft 0kts
13-Jan-21 09:13 34.894338 -120.443868 323 263ft 0kts
13-Jan-21 09:14 34.894338 -120.443868 323 263ft 0kts
13-Jan-21 09:15 34.894338 -120.443868 323 263ft 0kts
13-Jan-21 09:16 34.894338 -120.443868 323 263ft 0kts
13-Jan-21 09:17 34.894338 -120.443868 323 263ft 0kts
13-Jan-21 09:18 34.894338 -120.443868 323 263ft 0kts
13-Jan-21 09:19 34.894338 -120.443868 323 263ft 0kts
13-Jan-21 09:20 34.894338 -120.443868 323 263ft 0kts
13-Jan-21 09:21 34.894338 -120.443868 323 263ft 0kts
13-Jan-21 09:22 34.894338 -120.443868 323 263ft 0kts
13-Jan-21 09:23 34.894338 -120.443868 323 263ft 0kts
13-Jan-21 09:24 34.894338 -120.443868 323 263ft 0kts
13-Jan-21 09:25 34.894338 -120.443868 323 263ft 0kts
13-Jan-21 09:26 34.894118 -120.444940 253 262ft 6kts
13-Jan-21 09:27 34.893487 -120.444994 191 264ft 0kts
13-Jan-21 09:28 34.892932 -120.445613 230 265ft 10kts
13-Jan-21 09:29 34.900233 -120.454613 315 384ft 78kts
13-Jan-21 09:30 34.916315 -120.474230 314 1094ft 84kts
13-Jan-21 09:31 34.903859 -120.483552 113 1541ft 101kts
13-Jan-21 09:32 34.882795 -120.462749 138 2283ft 87kts
13-Jan-21 09:33 34.887257 -120.435589 62 2903ft 87kts
13-Jan-21 09:34 34.898129 -120.410101 59 3610ft 82kts
13-Jan-21 09:35 34.908652 -120.386636 57 4312ft 75kts
13-Jan-21 09:36 34.918126 -120.364470 60 4947ft 76kts
13-Jan-21 09:37 34.926870 -120.338936 61 5452ft 85kts
13-Jan-21 09:38 34.935762 -120.311696 59 5938ft 87kts
13-Jan-21 09:39 34.945291 -120.283693 60 6445ft 90kts
13-Jan-21 09:40 34.954510 -120.255409 55 6846ft 84kts
13-Jan-21 09:41 34.963818 -120.229186 58 7321ft 85kts
13-Jan-21 09:42 34.973696 -120.199189 59 7461ft 102kts
13-Jan-21 09:43 34.985561 -120.164843 59 7493ft 114kts
13-Jan-21 09:44 34.997773 -120.129901 59 7527ft 114kts
13-Jan-21 09:45 35.009946 -120.094682 61 7487ft 110kts
13-Jan-21 09:46 35.021880 -120.060537 59 7519ft 113kts
13-Jan-21 09:47 35.033829 -120.026561 59 7475ft 105kts
13-Jan-21 09:48 35.046378 -119.992048 59 7506ft 115kts
13-Jan-21 09:49 35.059219 -119.956487 59 7491ft 113kts
13-Jan-21 09:50 35.070737 -119.922919 60 7520ft 101kts
13-Jan-21 09:51 35.081895 -119.891004 59 7534ft 102kts
13-Jan-21 09:52 35.093045 -119.859951 57 7532ft 98kts
13-Jan-21 09:53 35.105922 -119.828318 56 7558ft 107kts
13-Jan-21 09:54 35.120049 -119.794781 56 7533ft 110kts
13-Jan-21 09:55 35.133736 -119.762110 56 7539ft 106kts
13-Jan-21 09:56 35.147110 -119.730137 56 7545ft 105kts
13-Jan-21 09:57 35.160392 -119.698309 56 7548ft 104kts
13-Jan-21 09:58 35.173558 -119.666862 56 7541ft 101kts
13-Jan-21 09:59 35.186426 -119.635918 55 7576ft 107kts
13-Jan-21 10:00 35.200901 -119.603210 54 7572ft 108kts
13-Jan-21 10:01 35.216036 -119.571486 53 7554ft 108kts
13-Jan-21 10:02 35.232517 -119.538443 53 7127ft 113kts
13-Jan-21 10:03 35.249135 -119.506101 53 6569ft 112kts
13-Jan-21 10:04 35.266232 -119.474220 53 5998ft 111kts
13-Jan-21 10:05 35.282274 -119.441783 59 5510ft 112kts
13-Jan-21 10:06 35.295381 -119.406877 65 5009ft 110kts
13-Jan-21 10:07 35.307758 -119.372671 65 4505ft 109kts
13-Jan-21 10:08 35.320377 -119.338588 65 4003ft 110kts
13-Jan-21 10:10 35.333088 -119.304384 65 3503ft 110kts
13-Jan-21 10:11 35.345879 -119.270085 65 3003ft 111kts
13-Jan-21 10:12 35.358731 -119.235835 65 2570ft 106kts
13-Jan-21 10:13 35.369945 -119.205124 68 2516ft 94kts
13-Jan-21 10:14 35.376646 -119.172063 86 2229ft 104kts
13-Jan-21 10:15 35.377438 -119.136852 88 1928ft 104kts
13-Jan-21 10:16 35.378708 -119.101581 57 1624ft 102kts
13-Jan-21 10:17 35.392892 -119.074783 46 1516ft 85kts
13-Jan-21 10:18 35.407785 -119.054000 49 1373ft 79kts
13-Jan-21 10:19 35.424100 -119.048036 321 572ft 61kts
13-Jan-21 10:20 35.433285 -119.058861 304 485ft 26kts
13-Jan-21 10:21 35.434855 -119.059972 40 490ft 0kts
13-Jan-21 10:22 35.435051 -119.059715 45 493ft 1kts
13-Jan-21 10:23 35.435214 -119.059518 41 496ft 0kts
13-Jan-21 10:23 35.435214 -119.059518 41 496ft 0kts
13-Jan-21 10:25 35.435856 -119.058737 54 497ft 13kts
13-Jan-21 10:26 35.436337 -119.057503 66 494ft 0kts
13-Jan-21 10:26 35.436359 -119.057380 84 494ft 5kts
13-Jan-21 10:27 35.433383 -119.053373 130 485ft 19kts
13-Jan-21 10:29 35.429750 -119.048914 106 483ft 11kts
13-Jan-21 10:29 35.430059 -119.047310 130 485ft 0kts
13-Jan-21 10:30 35.430059 -119.047310 130 485ft 0kts

Navigation Log

Ident Type
Flight plan parsing failed, navigation log unavailable